Time;durP1;ratioP1;P1;durP2;ratioP2;P2;SDS_P1;SDS_P2;PMS_P1;PMS_P2;Temp;Humidity;BMP_temperature;BMP_pressure;BME280_temperature;BME280_humidity;BME280_pressure;Samples;Min_cycle;Max_cycle;Signal;HPM_P1;HPM_P2
2023/08/04 00:01:58;;;;;;;;;;;;;;;14.54;100.00;100957.38;5022460;28;20393;-72
2023/08/04 00:04:23;;;;;;;;;;;;;;;14.55;100.00;100972.59;5009209;28;20270;-72
2023/08/04 00:06:48;;;;;;;;;;;;;;;14.45;100.00;100977.13;5013068;28;20433;-72
2023/08/04 00:09:14;;;;;;;;;;;;;;;14.45;100.00;100971.72;5026054;28;20367;-72
2023/08/04 00:11:39;;;;;;;;;;;;;;;14.39;100.00;100970.44;5022567;28;20422;-72
2023/08/04 00:14:04;;;;;;;;;;;;;;;14.38;100.00;100966.91;5007541;28;19927;-72
2023/08/04 00:16:29;;;;;;;;;;;;;;;14.36;100.00;100977.00;5019819;28;19931;-72
2023/08/04 00:18:55;;;;;;;;;;;;;;;14.34;100.00;100980.81;5006534;28;19927;-72
2023/08/04 00:21:20;;;;;;;;;;;;;;;14.29;100.00;100983.94;5023950;28;20496;-72
2023/08/04 00:23:45;;;;;;;;;;;;;;;14.29;100.00;100991.22;5024267;28;19931;-71
2023/08/04 00:26:10;;;;;;;;;;;;;;;14.26;100.00;100989.63;5012241;28;19935;-71
2023/08/04 00:28:35;;;;;;;;;;;;;;;14.30;100.00;100999.16;5025990;28;19924;-71
2023/08/04 00:31:01;;;;;;;;;;;;;;;14.28;100.00;100997.59;5021736;28;20190;-71
2023/08/04 00:33:26;;;;;;;;;;;;;;;14.22;100.00;100988.19;5024146;28;19920;-71
2023/08/04 00:35:51;;;;;;;;;;;;;;;14.21;100.00;100998.16;5025773;28;19960;-72
2023/08/04 00:38:16;;;;;;;;;;;;;;;14.19;100.00;100999.28;5025084;28;20094;-71
2023/08/04 00:40:42;;;;;;;;;;;;;;;14.19;100.00;101000.13;5007748;28;19955;-71
2023/08/04 00:43:07;;;;;;;;;;;;;;;14.16;100.00;101002.28;5008711;28;19924;-72
2023/08/04 00:45:32;;;;;;;;;;;;;;;14.16;100.00;100996.88;5021040;28;19964;-71
2023/08/04 00:47:57;;;;;;;;;;;;;;;14.10;100.00;101009.94;5003467;28;19929;-72
2023/08/04 00:50:23;;;;;;;;;;;;;;;14.14;100.00;101004.25;5025200;28;20425;-72
2023/08/04 00:52:48;;;;;;;;;;;;;;;14.09;100.00;101004.66;5009100;28;19921;-72
2023/08/04 00:55:14;;;;;;;;;;;;;;;14.12;100.00;101017.03;5027504;28;19921;-72
2023/08/04 00:57:39;;;;;;;;;;;;;;;14.08;100.00;101011.91;5022720;28;19924;-71
2023/08/04 01:00:06;;;;;;;;;;;;;;;14.10;100.00;101009.06;5008884;28;19920;-71
2023/08/04 01:02:31;;;;;;;;;;;;;;;14.14;100.00;101017.75;5022591;28;19971;-72
2023/08/04 01:04:56;;;;;;;;;;;;;;;14.11;100.00;101018.88;5022119;28;19921;-71
2023/08/04 01:07:22;;;;;;;;;;;;;;;14.11;100.00;101013.47;5010129;28;19928;-71
2023/08/04 01:09:55;;;;;;;;;;;;;;;14.08;100.00;101024.53;5005692;28;19925;-72
2023/08/04 01:12:26;;;;;;;;;;;;;;;14.04;100.00;101028.50;5022485;28;19974;-71
2023/08/04 01:14:53;;;;;;;;;;;;;;;14.10;100.00;101038.75;5023894;28;20373;-71
2023/08/04 01:17:21;;;;;;;;;;;;;;;14.18;100.00;101036.22;5025871;28;19916;-71
2023/08/04 01:19:47;;;;;;;;;;;;;;;14.20;100.00;101030.69;5024757;28;19921;-71
2023/08/04 01:22:12;;;;;;;;;;;;;;;14.24;100.00;101030.28;5029621;28;19925;-71
2023/08/04 01:24:37;;;;;;;;;;;;;;;14.32;100.00;101036.81;5025815;28;19924;-71
2023/08/04 01:27:03;;;;;;;;;;;;;;;14.28;100.00;101038.13;5026056;28;19925;-71
2023/08/04 01:29:29;;;;;;;;;;;;;;;14.37;100.00;101039.97;5026929;28;20042;-71
2023/08/04 01:31:54;;;;;;;;;;;;;;;14.32;100.00;101042.22;5028061;28;20006;-71
2023/08/04 01:34:20;;;;;;;;;;;;;;;14.36;100.00;101043.66;5012770;28;20752;-71
2023/08/04 01:36:45;;;;;;;;;;;;;;;14.44;100.00;101041.13;5026385;28;20217;-71
2023/08/04 01:39:11;;;;;;;;;;;;;;;14.46;100.00;101044.53;5023926;28;19933;-71
2023/08/04 01:41:36;;;;;;;;;;;;;;;14.48;100.00;101038.97;5023825;28;20423;-71
2023/08/04 01:44:01;;;;;;;;;;;;;;;14.50;100.00;101043.25;5027074;28;19925;-71
2023/08/04 01:46:26;;;;;;;;;;;;;;;14.51;100.00;101044.09;5028003;28;19928;-71
2023/08/04 01:48:51;;;;;;;;;;;;;;;14.50;100.00;101048.66;5030713;28;20449;-72
2023/08/04 01:51:17;;;;;;;;;;;;;;;14.46;100.00;101049.06;5026648;28;20022;-72
2023/08/04 01:53:42;;;;;;;;;;;;;;;14.44;100.00;101049.22;5024354;28;19925;-71
2023/08/04 01:56:07;;;;;;;;;;;;;;;14.44;100.00;101045.66;5027725;28;19922;-71
2023/08/04 01:58:32;;;;;;;;;;;;;;;14.43;100.00;101049.38;5026850;28;19931;-71
2023/08/04 02:00:57;;;;;;;;;;;;;;;14.40;100.00;101050.50;5032446;28;19921;-71
2023/08/04 02:03:23;;;;;;;;;;;;;;;14.46;100.00;101044.53;5028731;28;20613;-71
2023/08/04 02:05:48;;;;;;;;;;;;;;;14.49;100.00;101048.78;5032395;28;19921;-71
2023/08/04 02:08:13;;;;;;;;;;;;;;;14.52;100.00;101046.69;5031075;28;19982;-72
2023/08/04 02:10:45;;;;;;;;;;;;;;;14.58;100.00;101053.38;5029727;28;20364;-71
2023/08/04 02:13:10;;;;;;;;;;;;;;;14.62;100.00;101051.22;5028672;28;20326;-71
2023/08/04 02:15:36;;;;;;;;;;;;;;;14.58;100.00;101050.66;5032657;28;19934;-72
2023/08/04 02:18:01;;;;;;;;;;;;;;;14.64;100.00;101058.22;5032642;28;19921;-71
2023/08/04 02:20:26;;;;;;;;;;;;;;;14.64;100.00;101062.75;5029188;28;19913;-71
2023/08/04 02:22:51;;;;;;;;;;;;;;;14.62;100.00;101062.03;5033522;28;19921;-72
2023/08/04 02:25:16;;;;;;;;;;;;;;;14.60;100.00;101051.38;5031252;28;19921;-72
2023/08/04 02:27:42;;;;;;;;;;;;;;;14.65;100.00;101064.44;5011251;28;19994;-72
2023/08/04 02:30:08;;;;;;;;;;;;;;;14.63;100.00;101064.59;5027142;28;20380;-72
2023/08/04 02:32:33;;;;;;;;;;;;;;;14.68;100.00;101056.06;5032087;28;19924;-71
2023/08/04 02:34:58;;;;;;;;;;;;;;;14.66;100.00;101061.63;5032786;28;20014;-71
2023/08/04 02:37:24;;;;;;;;;;;;;;;14.67;100.00;101065.16;5017101;28;20607;-71
2023/08/04 02:39:49;;;;;;;;;;;;;;;14.62;100.00;101062.03;5024309;28;20322;-71
2023/08/04 02:42:14;;;;;;;;;;;;;;;14.64;100.00;101065.44;5031989;28;19925;-71
2023/08/04 02:44:39;;;;;;;;;;;;;;;14.62;100.00;101071.00;5028832;28;19960;-72
2023/08/04 02:47:05;;;;;;;;;;;;;;;14.65;100.00;101064.44;5031059;28;19931;-72
2023/08/04 02:49:30;;;;;;;;;;;;;;;14.60;100.00;101064.88;5031096;28;19927;-71
2023/08/04 02:51:55;;;;;;;;;;;;;;;14.66;100.00;101066.16;5030433;28;19944;-72
2023/08/04 02:54:20;;;;;;;;;;;;;;;14.63;100.00;101070.00;5007267;28;19927;-71
2023/08/04 02:56:46;;;;;;;;;;;;;;;14.58;100.00;101069.56;5031524;28;19920;-71
2023/08/04 02:59:11;;;;;;;;;;;;;;;14.63;100.00;101078.13;5016506;28;19920;-71
2023/08/04 03:01:36;;;;;;;;;;;;;;;14.63;100.00;101077.25;5031125;28;19921;-71
2023/08/04 03:04:02;;;;;;;;;;;;;;;14.61;100.00;101077.41;5023531;28;19917;-71
2023/08/04 03:06:27;;;;;;;;;;;;;;;14.63;100.00;101069.16;5024836;28;20015;-71
2023/08/04 03:08:52;;;;;;;;;;;;;;;14.60;100.00;101075.69;5025634;28;20151;-71
2023/08/04 03:11:17;;;;;;;;;;;;;;;14.64;100.00;101077.13;5028454;28;19948;-71
2023/08/04 03:13:42;;;;;;;;;;;;;;;14.62;100.00;101086.34;5025571;28;19928;-71
2023/08/04 03:16:08;;;;;;;;;;;;;;;14.60;100.00;101085.63;5022577;28;19928;-71
2023/08/04 03:18:33;;;;;;;;;;;;;;;14.60;100.00;101082.94;5022572;28;19924;-71
2023/08/04 03:21:01;;;;;;;;;;;;;;;14.61;100.00;101088.22;5027035;28;19925;-71
2023/08/04 03:23:26;;;;;;;;;;;;;;;14.59;100.00;101095.59;5023931;28;20371;-71
2023/08/04 03:25:51;;;;;;;;;;;;;;;14.62;100.00;101089.91;5029369;28;20030;-71
2023/08/04 03:28:16;;;;;;;;;;;;;;;14.63;100.00;101091.63;5026264;28;19928;-71
2023/08/04 03:30:42;;;;;;;;;;;;;;;14.60;100.00;101091.03;5024511;28;19979;-71
2023/08/04 03:33:07;;;;;;;;;;;;;;;14.59;100.00;101094.72;5007352;28;20027;-71
2023/08/04 03:35:32;;;;;;;;;;;;;;;14.58;100.00;101095.72;5027595;28;20399;-71
2023/08/04 03:37:57;;;;;;;;;;;;;;;14.54;100.00;101093.31;5009097;28;19976;-71
2023/08/04 03:40:22;;;;;;;;;;;;;;;14.54;100.00;101095.16;5025104;28;20028;-71
2023/08/04 03:42:48;;;;;;;;;;;;;;;14.51;100.00;101100.84;5028910;28;19920;-71
2023/08/04 03:45:13;;;;;;;;;;;;;;;14.45;100.00;101099.56;5026313;28;19929;-71
2023/08/04 03:47:38;;;;;;;;;;;;;;;14.36;100.00;101098.53;5026989;28;19970;-71
2023/08/04 03:50:04;;;;;;;;;;;;;;;14.34;100.00;101102.34;5006259;28;20329;-71
2023/08/04 03:52:29;;;;;;;;;;;;;;;14.34;100.00;101102.34;5008360;28;19944;-71
2023/08/04 03:54:55;;;;;;;;;;;;;;;14.34;100.00;101100.53;5020743;28;20556;-71
2023/08/04 03:57:20;;;;;;;;;;;;;;;14.27;100.00;101093.13;5007011;28;20471;-71
2023/08/04 03:59:45;;;;;;;;;;;;;;;14.23;100.00;101103.31;5025752;28;19955;-71
2023/08/04 04:02:10;;;;;;;;;;;;;;;14.14;100.00;101098.75;5022073;28;19960;-71
2023/08/04 04:04:36;;;;;;;;;;;;;;;14.05;100.00;101097.72;5018311;28;20204;-71
2023/08/04 04:07:01;;;;;;;;;;;;;;;14.07;100.00;101101.13;5023181;28;19961;-71
2023/08/04 04:09:26;;;;;;;;;;;;;;;14.02;100.00;101106.09;5018913;28;19917;-71
2023/08/04 04:11:51;;;;;;;;;;;;;;;13.98;100.00;101105.50;5008390;28;19978;-71
2023/08/04 04:14:17;;;;;;;;;;;;;;;13.97;100.00;101108.34;5021807;28;19947;-71
2023/08/04 04:16:42;;;;;;;;;;;;;;;14.01;100.00;101112.50;5008059;28;20489;-71
2023/08/04 04:19:07;;;;;;;;;;;;;;;14.04;100.00;101115.75;5005781;28;20391;-71
2023/08/04 04:21:32;;;;;;;;;;;;;;;14.14;100.00;101113.09;5007448;28;20465;-71
2023/08/04 04:23:58;;;;;;;;;;;;;;;14.20;100.00;101112.56;5021087;28;19932;-71
2023/08/04 04:26:23;;;;;;;;;;;;;;;14.27;100.00;101118.25;5021998;28;19922;-71
2023/08/04 04:28:49;;;;;;;;;;;;;;;14.28;100.00;101114.56;5020129;28;19925;-71
2023/08/04 04:31:14;;;;;;;;;;;;;;;14.32;100.00;101121.41;5009538;28;19925;-71
2023/08/04 04:33:39;;;;;;;;;;;;;;;14.36;100.00;101122.84;5019098;28;19920;-71
2023/08/04 04:36:04;;;;;;;;;;;;;;;14.36;100.00;101120.16;5023596;28;19924;-71
2023/08/04 04:38:29;;;;;;;;;;;;;;;14.46;100.00;101128.28;5003017;28;20026;-71
2023/08/04 04:40:55;;;;;;;;;;;;;;;14.52;100.00;101124.16;5018630;28;20007;-71
2023/08/04 04:43:20;;;;;;;;;;;;;;;14.59;100.00;101122.63;5021841;28;20027;-71
2023/08/04 04:45:49;;;;;;;;;;;;;;;14.59;100.00;101122.63;5020743;28;20011;-71
2023/08/04 04:48:14;;;;;;;;;;;;;;;14.63;100.00;101139.41;5023238;28;20114;-71
2023/08/04 04:50:39;;;;;;;;;;;;;;;14.64;100.00;101133.88;5025381;28;19960;-71
2023/08/04 04:53:05;;;;;;;;;;;;;;;14.73;100.00;101140.31;5024596;28;20016;-71
2023/08/04 04:55:30;;;;;;;;;;;;;;;14.78;100.00;101140.75;5022345;28;19948;-71
2023/08/04 04:57:55;;;;;;;;;;;;;;;14.82;100.00;101141.31;5037020;28;20599;-71
2023/08/04 05:00:20;;;;;;;;;;;;;;;14.84;100.00;101142.88;5006366;28;20278;-71
2023/08/04 05:02:45;;;;;;;;;;;;;;;14.85;100.00;101141.03;5025026;28;20370;-71
2023/08/04 05:05:11;;;;;;;;;;;;;;;14.88;100.00;101139.91;5026314;28;19961;-71
2023/08/04 05:07:36;;;;;;;;;;;;;;;14.95;100.00;101155.44;5022998;28;20059;-71
2023/08/04 05:10:01;;;;;;;;;;;;;;;14.97;100.00;101153.41;5025930;28;19927;-71
2023/08/04 05:12:26;;;;;;;;;;;;;;;14.95;100.00;101151.88;5027921;28;19932;-71
2023/08/04 05:14:52;;;;;;;;;;;;;;;14.99;100.00;101154.13;5028473;28;19928;-71
2023/08/04 05:17:17;;;;;;;;;;;;;;;14.94;100.00;101153.72;5028677;28;19967;-71
2023/08/04 05:19:44;;;;;;;;;;;;;;;14.99;100.00;101150.59;5027283;28;19924;-71
2023/08/04 05:22:09;;;;;;;;;;;;;;;14.98;100.00;101152.44;5025223;28;19967;-71
2023/08/04 05:24:34;;;;;;;;;;;;;;;14.95;100.00;101152.72;5032181;28;20118;-71
2023/08/04 05:27:00;;;;;;;;;;;;;;;14.97;100.00;101161.53;5030301;28;19998;-71
2023/08/04 05:29:25;;;;;;;;;;;;;;;14.99;100.00;101166.81;5028414;28;20167;-71
2023/08/04 05:31:51;;;;;;;;;;;;;;;15.12;100.00;101166.53;5028142;28;19932;-71
2023/08/04 05:34:16;;;;;;;;;;;;;;;15.22;100.00;101169.25;5026788;28;19964;-71
2023/08/04 05:36:41;;;;;;;;;;;;;;;15.34;100.00;101157.31;5036657;28;20023;-71
2023/08/04 05:39:06;;;;;;;;;;;;;;;15.38;100.00;101165.97;5022221;28;19927;-71
2023/08/04 05:41:31;;;;;;;;;;;;;;;15.53;100.00;101169.09;5030129;28;20039;-71
2023/08/04 05:43:57;;;;;;;;;;;;;;;15.52;100.00;101179.06;5024400;28;19931;-71
2023/08/04 05:46:22;;;;;;;;;;;;;;;15.43;100.00;101175.34;5036654;28;19925;-71
2023/08/04 05:48:47;;;;;;;;;;;;;;;15.47;100.00;101180.50;5032027;28;20430;-71
2023/08/04 05:51:14;;;;;;;;;;;;;;;15.50;100.00;101182.91;5030550;28;20346;-71
2023/08/04 05:53:39;;;;;;;;;;;;;;;15.59;100.00;101191.00;5032700;28;19921;-71
2023/08/04 05:56:04;;;;;;;;;;;;;;;15.64;100.00;101192.44;5030937;28;19932;-71
2023/08/04 05:58:30;;;;;;;;;;;;;;;15.68;100.00;101189.28;5032313;28;19916;-71
2023/08/04 06:00:55;;;;;;;;;;;;;;;15.77;100.00;101192.97;5034319;28;19917;-71
2023/08/04 06:03:20;;;;;;;;;;;;;;;15.82;100.00;101196.09;5035797;28;19983;-71
2023/08/04 06:05:45;;;;;;;;;;;;;;;15.89;100.00;101204.56;5029784;28;20019;-71
2023/08/04 06:08:10;;;;;;;;;;;;;;;15.90;100.00;101214.38;5033651;28;20651;-71
2023/08/04 06:10:36;;;;;;;;;;;;;;;15.98;100.00;101208.25;5022523;28;19921;-71
2023/08/04 06:13:02;;;;;;;;;;;;;;;15.97;100.00;101203.81;5006305;28;19917;-71
2023/08/04 06:15:27;;;;;;;;;;;;;;;16.01;100.00;101211.50;5028799;28;20280;-71
2023/08/04 06:17:53;;;;;;;;;;;;;;;16.12;100.00;101215.06;5032196;28;19943;-71
2023/08/04 06:20:18;;;;;;;;;;;;;;;16.27;100.00;101213.56;5029472;28;20391;-72
2023/08/04 06:22:45;;;;;;;;;;;;;;;16.38;100.00;101214.41;5027890;28;20453;-71
2023/08/04 06:25:10;;;;;;;;;;;;;;;16.54;100.00;101211.03;5026754;28;20242;-71
2023/08/04 06:27:35;;;;;;;;;;;;;;;16.71;100.00;101214.78;5024812;28;20368;-71
2023/08/04 06:30:00;;;;;;;;;;;;;;;16.82;100.00;101219.19;5030097;28;19921;-71
2023/08/04 06:32:26;;;;;;;;;;;;;;;16.81;100.00;101221.03;5031955;28;20248;-71
2023/08/04 06:34:51;;;;;;;;;;;;;;;16.93;100.00;101221.66;5026708;28;20067;-72
2023/08/04 06:37:16;;;;;;;;;;;;;;;16.98;100.00;101223.94;5032392;28;20070;-72
2023/08/04 06:39:41;;;;;;;;;;;;;;;17.11;100.00;101224.44;5030793;28;19927;-72
2023/08/04 06:42:07;;;;;;;;;;;;;;;17.09;100.00;101221.03;5026736;28;19967;-72
2023/08/04 06:44:32;;;;;;;;;;;;;;;17.09;100.00;101221.88;5032779;28;20379;-71
2023/08/04 06:46:57;;;;;;;;;;;;;;;16.99;100.00;101229.25;5028741;28;20588;-72
2023/08/04 06:49:22;;;;;;;;;;;;;;;16.90;100.00;101235.53;5033554;28;20352;-71
2023/08/04 06:51:49;;;;;;;;;;;;;;;17.00;100.00;101232.78;5015804;28;20335;-71
2023/08/04 06:54:14;;;;;;;;;;;;;;;17.13;100.00;101237.84;5015969;28;19925;-72
2023/08/04 06:56:40;;;;;;;;;;;;;;;17.29;100.00;101238.03;5023466;28;19944;-72
2023/08/04 06:59:05;;;;;;;;;;;;;;;17.49;100.00;101230.56;5034735;28;20005;-71
2023/08/04 07:01:30;;;;;;;;;;;;;;;17.72;100.00;101243.69;5033502;28;19961;-71
2023/08/04 07:03:55;;;;;;;;;;;;;;;17.85;100.00;101246.00;5028165;28;20248;-73
2023/08/04 07:06:21;;;;;;;;;;;;;;;17.94;100.00;101241.47;5031700;28;20202;-72
2023/08/04 07:08:46;;;;;;;;;;;;;;;18.05;100.00;101243.13;5034024;28;20226;-74
2023/08/04 07:11:17;;;;;;;;;;;;;;;18.10;100.00;101236.19;5032404;28;19921;-72
2023/08/04 07:13:46;;;;;;;;;;;;;;;18.11;100.00;101237.06;5022545;28;19980;-72
2023/08/04 07:16:11;;;;;;;;;;;;;;;18.06;100.00;101236.66;5026870;28;20291;-70
2023/08/04 07:18:36;;;;;;;;;;;;;;;18.16;100.00;101237.41;5032225;28;19921;-72
2023/08/04 07:21:08;;;;;;;;;;;;;;;18.18;100.00;101240.81;5024606;28;19960;-72
2023/08/04 07:23:34;;;;;;;;;;;;;;;17.99;100.00;101240.00;5027611;28;19921;-73
2023/08/04 07:25:59;;;;;;;;;;;;;;;18.02;100.00;101240.72;5034142;28;20007;-71
2023/08/04 07:28:24;;;;;;;;;;;;;;;18.07;100.00;101249.25;5033688;28;19947;-71
2023/08/04 07:30:49;;;;;;;;;;;;;;;18.06;100.00;101251.09;5029965;28;19963;-71
2023/08/04 07:33:15;;;;;;;;;;;;;;;18.08;100.00;101253.66;5027234;28;20024;-71
2023/08/04 07:35:40;;;;;;;;;;;;;;;18.26;100.00;101251.75;5028607;28;19920;-71
2023/08/04 07:38:05;;;;;;;;;;;;;;;18.30;100.00;101246.81;5011372;28;20179;-72
2023/08/04 07:40:30;;;;;;;;;;;;;;;18.40;100.00;101252.19;5015831;28;19935;-73
2023/08/04 07:42:55;;;;;;;;;;;;;;;18.59;100.00;101254.66;5022257;28;19956;-73
2023/08/04 07:45:21;;;;;;;;;;;;;;;18.55;100.00;101252.41;5014229;28;19920;-72
2023/08/04 07:47:46;;;;;;;;;;;;;;;18.48;100.00;101256.81;5021922;28;19947;-71
2023/08/04 07:50:11;;;;;;;;;;;;;;;18.38;100.00;101260.47;5007527;28;20339;-73
2023/08/04 07:52:36;;;;;;;;;;;;;;;18.42;100.00;101261.88;5046674;28;20324;-73
2023/08/04 07:55:01;;;;;;;;;;;;;;;18.47;100.00;101265.97;5018024;28;19924;-72
2023/08/04 07:57:27;;;;;;;;;;;;;;;18.32;100.00;101271.16;5010583;28;19980;-72
2023/08/04 07:59:52;;;;;;;;;;;;;;;18.33;100.00;101267.41;5035504;28;20023;-73
2023/08/04 08:02:17;;;;;;;;;;;;;;;18.10;100.00;101276.09;5024753;28;20440;-71
2023/08/04 08:04:42;;;;;;;;;;;;;;;18.21;100.00;101274.97;5007455;28;20007;-71
2023/08/04 08:07:08;;;;;;;;;;;;;;;18.41;100.00;101271.03;5025770;28;19924;-72
2023/08/04 08:09:33;;;;;;;;;;;;;;;18.40;100.00;101266.59;5010905;28;19968;-70
2023/08/04 08:11:59;;;;;;;;;;;;;;;18.59;100.00;101268.25;5012438;28;20391;-71
2023/08/04 08:14:24;;;;;;;;;;;;;;;18.99;100.00;101274.06;5022588;28;20036;-71
2023/08/04 08:16:49;;;;;;;;;;;;;;;19.31;100.00;101266.16;5026592;28;20326;-71
2023/08/04 08:19:14;;;;;;;;;;;;;;;19.63;100.00;101269.94;5011541;28;20594;-72
2023/08/04 08:21:40;;;;;;;;;;;;;;;19.76;100.00;101264.81;5034006;28;20323;-72
2023/08/04 08:24:05;;;;;;;;;;;;;;;19.88;100.00;101268.09;5029812;28;19927;-73
2023/08/04 08:26:31;;;;;;;;;;;;;;;19.96;100.00;101274.56;5013031;28;19973;-73
2023/08/04 08:28:56;;;;;;;;;;;;;;;19.95;100.00;101270.13;5023164;28;19952;-73
2023/08/04 08:31:21;;;;;;;;;;;;;;;19.92;100.00;101274.91;5030608;28;20191;-71
2023/08/04 08:33:47;;;;;;;;;;;;;;;19.84;100.00;101271.31;5010767;28;19928;-71
2023/08/04 08:36:12;;;;;;;;;;;;;;;19.69;100.00;101274.72;5029674;28;20383;-72
2023/08/04 08:38:37;;;;;;;;;;;;;;;19.43;100.00;101278.44;5023683;28;20417;-72
2023/08/04 08:41:02;;;;;;;;;;;;;;;19.45;100.00;101280.97;5016416;28;20005;-73
2023/08/04 08:43:27;;;;;;;;;;;;;;;19.55;100.00;101281.69;5011477;28;19925;-73
2023/08/04 08:45:53;;;;;;;;;;;;;;;19.54;100.00;101269.09;5028488;28;19921;-71
2023/08/04 08:48:18;;;;;;;;;;;;;;;19.83;100.00;101289.53;5002761;28;19971;-72
2023/08/04 08:50:44;;;;;;;;;;;;;;;19.86;100.00;101286.47;5013272;28;20037;-73
2023/08/04 08:53:10;;;;;;;;;;;;;;;19.69;100.00;101290.19;5023089;28;19952;-73
2023/08/04 08:55:36;;;;;;;;;;;;;;;19.90;100.00;101295.19;5004362;28;19923;-73
2023/08/04 08:58:02;;;;;;;;;;;;;;;19.86;100.00;101293.78;5026463;28;19960;-72
2023/08/04 09:00:27;;;;;;;;;;;;;;;20.04;100.00;101305.38;5030403;28;20353;-73
2023/08/04 09:02:53;;;;;;;;;;;;;;;20.18;100.00;101301.13;5027194;28;19951;-73
2023/08/04 09:05:18;;;;;;;;;;;;;;;20.15;100.00;101304.19;5018334;28;19921;-72
2023/08/04 09:07:43;;;;;;;;;;;;;;;20.08;100.00;101306.75;5027355;28;19936;-73
2023/08/04 09:10:08;;;;;;;;;;;;;;;19.87;100.00;101312.69;5024713;28;20031;-72
2023/08/04 09:12:33;;;;;;;;;;;;;;;19.67;100.00;101312.16;5023689;28;19921;-71
2023/08/04 09:15:01;;;;;;;;;;;;;;;19.40;100.00;101313.28;5027294;28;20043;-72
2023/08/04 09:17:45;;;;;;;;;;;;;;;19.41;100.00;101310.41;5016109;28;20379;-71
2023/08/04 09:20:10;;;;;;;;;;;;;;;19.45;100.00;101316.38;5019118;28;19917;-72
2023/08/04 09:22:42;;;;;;;;;;;;;;;19.54;100.00;101312.66;5008300;28;19924;-72
2023/08/04 09:25:07;;;;;;;;;;;;;;;19.71;100.00;101309.94;5024229;28;19928;-73
2023/08/04 09:27:34;;;;;;;;;;;;;;;20.12;100.00;101312.72;5003791;28;19925;-73
2023/08/04 09:30:00;;;;;;;;;;;;;;;20.33;100.00;101301.28;5020088;28;19921;-72
2023/08/04 09:32:26;;;;;;;;;;;;;;;20.65;100.00;101310.41;5011764;28;19928;-74
2023/08/04 09:35:01;;;;;;;;;;;;;;;20.82;100.00;101315.84;5025803;28;20290;-72
2023/08/04 09:37:27;;;;;;;;;;;;;;;20.63;100.00;101317.91;5004653;28;20283;-72
2023/08/04 09:39:52;;;;;;;;;;;;;;;20.65;100.00;101315.03;5025148;28;19918;-72
2023/08/04 09:42:19;;;;;;;;;;;;;;;21.01;100.00;101321.94;5024216;28;20039;-73
2023/08/04 09:44:49;;;;;;;;;;;;;;;21.11;100.00;101325.28;5012965;28;20036;-73
2023/08/04 09:47:14;;;;;;;;;;;;;;;20.97;100.00;101322.28;5024764;28;19924;-73
2023/08/04 09:49:39;;;;;;;;;;;;;;;21.04;100.00;101318.84;5012837;28;20006;-73
2023/08/04 09:52:04;;;;;;;;;;;;;;;20.73;100.00;101328.63;5008753;28;20016;-74
2023/08/04 09:54:30;;;;;;;;;;;;;;;20.32;100.00;101326.00;5020117;28;19921;-73
2023/08/04 09:56:55;;;;;;;;;;;;;;;20.12;100.00;101320.91;5020792;28;19960;-74
2023/08/04 09:59:20;;;;;;;;;;;;;;;19.99;100.00;101331.47;5023456;28;20021;-73
2023/08/04 10:01:45;;;;;;;;;;;;;;;19.90;100.00;101330.59;5021915;28;20155;-74
2023/08/04 10:04:11;;;;;;;;;;;;;;;20.15;100.00;101328.72;5019146;28;19924;-74
2023/08/04 10:06:38;;;;;;;;;;;;;;;20.51;100.00;101331.06;5014933;28;19960;-73
2023/08/04 10:09:03;;;;;;;;;;;;;;;20.39;100.00;101327.03;5027227;28;19920;-73
2023/08/04 10:11:29;;;;;;;;;;;;;;;20.72;100.00;101329.66;5027863;28;19935;-73
2023/08/04 10:13:54;;;;;;;;;;;;;;;21.38;100.00;101328.56;5025702;28;20344;-73
2023/08/04 10:16:25;;;;;;;;;;;;;;;21.61;100.00;101311.34;5009767;28;20536;-73
2023/08/04 10:19:01;;;;;;;;;;;;;;;22.05;100.00;101309.84;5022898;28;19974;-74
2023/08/04 10:21:29;;;;;;;;;;;;;;;22.02;100.00;101324.75;5030083;28;20540;-74
2023/08/04 10:23:57;;;;;;;;;;;;;;;22.44;100.00;101326.09;5028396;28;20322;-74
2023/08/04 10:26:22;;;;;;;;;;;;;;;22.56;100.00;101321.00;5028681;28;20319;-74
2023/08/04 10:29:01;;;;;;;;;;;;;;;22.72;100.00;101322.72;5030537;28;19951;-74
2023/08/04 10:31:41;;;;;;;;;;;;;;;22.40;100.00;101323.88;5029022;28;20556;-74
2023/08/04 10:34:25;;;;;;;;;;;;;;;22.50;100.00;101323.66;5030408;28;19920;-72
2023/08/04 10:36:59;;;;;;;;;;;;;;;22.29;100.00;101331.50;5029892;28;19924;-73
2023/08/04 10:39:28;;;;;;;;;;;;;;;22.02;100.00;101325.59;5027524;28;20417;-74
2023/08/04 10:41:53;;;;;;;;;;;;;;;22.16;100.00;101326.66;5029352;28;19920;-74
2023/08/04 10:44:18;;;;;;;;;;;;;;;22.40;100.00;101324.72;5022131;28;20012;-75
2023/08/04 10:46:44;;;;;;;;;;;;;;;22.49;100.00;101332.88;5031313;28;19929;-74
2023/08/04 10:49:09;;;;;;;;;;;;;;;22.79;100.00;101328.28;5026886;28;19921;-73
2023/08/04 10:51:34;;;;;;;;;;;;;;;23.52;100.00;101324.78;5025541;28;19928;-73
2023/08/04 10:53:59;;;;;;;;;;;;;;;23.44;100.00;101323.03;5029550;28;20149;-74
2023/08/04 10:56:25;;;;;;;;;;;;;;;23.16;100.00;101331.94;5032289;28;19963;-73
2023/08/04 10:58:50;;;;;;;;;;;;;;;23.64;100.00;101334.22;5030913;28;19927;-74
2023/08/04 11:01:15;;;;;;;;;;;;;;;23.92;100.00;101330.69;5026798;28;19925;-74
2023/08/04 11:03:41;;;;;;;;;;;;;;;23.20;100.00;101335.13;5026122;28;20379;-73
2023/08/04 11:06:06;;;;;;;;;;;;;;;23.36;99.44;101337.69;5023373;28;20033;-73
2023/08/04 11:08:31;;;;;;;;;;;;;;;23.95;99.51;101338.53;5028531;28;20216;-72
2023/08/04 11:10:57;;;;;;;;;;;;;;;24.08;100.00;101336.97;5027446;28;20922;-73
2023/08/04 11:13:22;;;;;;;;;;;;;;;23.67;97.99;101341.19;5017841;28;19921;-74
2023/08/04 11:15:48;;;;;;;;;;;;;;;22.95;89.16;101343.66;5029243;28;20214;-74
2023/08/04 11:18:23;;;;;;;;;;;;;;;22.57;93.71;101341.03;5027823;28;19927;-75
2023/08/04 11:20:49;;;;;;;;;;;;;;;22.65;91.25;101351.84;5024144;28;20014;-76
2023/08/04 11:23:14;;;;;;;;;;;;;;;22.47;95.27;101344.88;5026899;28;19934;-75
2023/08/04 11:25:39;;;;;;;;;;;;;;;22.73;90.57;101345.47;5024541;28;20193;-76
2023/08/04 11:28:05;;;;;;;;;;;;;;;22.92;88.62;101352.25;5028876;28;20405;-74
2023/08/04 11:30:34;;;;;;;;;;;;;;;23.26;90.45;101350.84;5026307;28;19925;-75
2023/08/04 11:32:59;;;;;;;;;;;;;;;23.69;92.68;101350.06;5026713;28;20434;-75
2023/08/04 11:35:26;;;;;;;;;;;;;;;23.79;83.10;101353.34;5025762;28;19947;-74
2023/08/04 11:37:51;;;;;;;;;;;;;;;23.54;84.97;101362.97;5006200;28;19931;-75
2023/08/04 11:40:17;;;;;;;;;;;;;;;23.87;82.52;101357.84;5021724;28;19943;-76
2023/08/04 11:42:43;;;;;;;;;;;;;;;24.06;91.53;101361.00;5009731;28;19960;-75
2023/08/04 11:45:08;;;;;;;;;;;;;;;24.81;81.90;101360.56;5031220;28;19920;-75
2023/08/04 11:47:33;;;;;;;;;;;;;;;25.48;79.61;101360.91;5022992;28;19931;-74
2023/08/04 11:49:59;;;;;;;;;;;;;;;26.15;76.95;101358.31;5017110;28;19966;-75
2023/08/04 11:52:24;;;;;;;;;;;;;;;26.62;71.00;101355.50;5010461;28;20035;-74
2023/08/04 11:54:50;;;;;;;;;;;;;;;25.84;66.28;101367.97;5017836;28;19966;-72
2023/08/04 11:57:16;;;;;;;;;;;;;;;26.87;67.78;101365.03;5027880;28;19925;-72
2023/08/04 11:59:51;;;;;;;;;;;;;;;25.50;63.09;101380.78;5019113;28;19921;-74
2023/08/04 12:02:16;;;;;;;;;;;;;;;24.52;69.20;101378.91;5026799;28;20268;-73
2023/08/04 12:04:42;;;;;;;;;;;;;;;22.87;79.77;101379.38;5022621;28;20302;-73
2023/08/04 12:07:07;;;;;;;;;;;;;;;22.77;84.49;101394.16;5014468;28;19933;-74
2023/08/04 12:09:32;;;;;;;;;;;;;;;22.27;89.88;101395.63;5021462;28;19932;-74
2023/08/04 12:11:58;;;;;;;;;;;;;;;21.37;98.16;101404.19;5008150;28;19952;-70
2023/08/04 12:14:23;;;;;;;;;;;;;;;20.65;100.00;101400.44;5022512;28;20417;-74
2023/08/04 12:16:52;;;;;;;;;;;;;;;20.71;100.00;101404.34;5010666;28;19925;-74
2023/08/04 12:19:18;;;;;;;;;;;;;;;20.40;100.00;101396.03;5021244;28;19999;-73
2023/08/04 12:21:43;;;;;;;;;;;;;;;20.44;100.00;101411.03;5021699;28;20387;-77